Time;durP1;ratioP1;P1;durP2;ratioP2;P2;SDS_P1;SDS_P2;PMS_P1;PMS_P2;Temp;Humidity;BMP_temperature;BMP_pressure;BME280_temperature;BME280_humidity;BME280_pressure;Samples;Min_cycle;Max_cycle;Signal;HPM_P1;HPM_P2
2020/12/16 00:01:55;;;;;;;108.10;52.93;;;7.80;99.90;;;;;;5111271;28;20217;-79
2020/12/16 00:04:21;;;;;;;104.03;52.10;;;7.70;99.90;;;;;;5109148;28;20250;-79
2020/12/16 00:06:47;;;;;;;109.00;52.57;;;7.40;99.90;;;;;;5102656;28;20212;-79
2020/12/16 00:09:13;;;;;;;137.93;55.67;;;7.40;99.90;;;;;;5107807;28;20540;-79
2020/12/16 00:11:38;;;;;;;150.33;58.20;;;7.30;99.90;;;;;;5105968;28;20205;-79
2020/12/16 00:14:04;;;;;;;176.77;60.17;;;7.30;99.90;;;;;;5104890;28;20228;-79
2020/12/16 00:16:32;;;;;;;196.80;61.20;;;7.30;99.90;;;;;;5099771;28;20254;-79
2020/12/16 00:18:58;;;;;;;179.73;57.97;;;7.50;99.90;;;;;;5107203;28;20193;-79
2020/12/16 00:21:24;;;;;;;204.07;63.33;;;7.40;99.90;;;;;;5111585;27;20250;-79
2020/12/16 00:23:49;;;;;;;274.83;68.17;;;7.50;99.90;;;;;;5107632;28;20185;-79
2020/12/16 00:26:15;;;;;;;296.10;70.23;;;7.70;99.90;;;;;;5102748;28;20225;-79
2020/12/16 00:28:41;;;;;;;397.13;77.00;;;7.80;99.90;;;;;;5101702;28;20203;-79
2020/12/16 00:31:07;;;;;;;490.17;78.67;;;7.80;99.90;;;;;;5101515;28;20196;-79
2020/12/16 00:33:36;;;;;;;446.37;73.43;;;8.10;99.90;;;;;;5096073;28;20197;-79
2020/12/16 00:36:02;;;;;;;458.13;70.87;;;8.20;99.90;;;;;;5108297;28;20279;-79
2020/12/16 00:38:28;;;;;;;429.50;71.97;;;8.10;99.90;;;;;;5109397;28;20350;-79
2020/12/16 00:40:53;;;;;;;422.60;70.23;;;7.60;99.90;;;;;;5099210;28;20214;-79
2020/12/16 00:43:19;;;;;;;512.80;82.73;;;7.40;99.90;;;;;;5111060;28;22023;-79
2020/12/16 00:45:44;;;;;;;312.83;57.00;;;7.40;99.90;;;;;;5105821;28;20186;-79
2020/12/16 00:48:10;;;;;;;381.00;59.40;;;7.30;99.90;;;;;;5110084;28;20242;-79
2020/12/16 00:50:36;;;;;;;317.17;51.17;;;7.20;99.90;;;;;;5107979;28;20276;-79
2020/12/16 00:53:01;;;;;;;413.77;60.57;;;7.10;99.90;;;;;;5107000;28;20216;-79
2020/12/16 00:55:27;;;;;;;458.77;64.83;;;7.20;99.90;;;;;;5111556;28;20193;-79
2020/12/16 00:57:54;;;;;;;496.27;68.43;;;7.20;99.90;;;;;;5109178;28;20192;-79
2020/12/16 01:00:20;;;;;;;432.87;66.60;;;7.60;99.90;;;;;;5106210;28;20205;-79
2020/12/16 01:02:47;;;;;;;331.97;64.17;;;7.80;99.90;;;;;;5109020;28;20192;-79
2020/12/16 01:05:18;;;;;;;293.50;60.67;;;7.60;99.90;;;;;;5107202;28;20645;-79
2020/12/16 01:07:44;;;;;;;201.53;44.60;;;7.30;99.90;;;;;;5104648;28;20211;-79
2020/12/16 01:10:11;;;;;;;338.77;51.07;;;7.10;99.90;;;;;;5103082;28;20182;-79
2020/12/16 01:12:38;;;;;;;480.87;65.53;;;6.90;99.90;;;;;;5111246;28;20188;-79
2020/12/16 01:15:34;;;;;;;264.10;50.10;;;6.90;99.90;;;;;;5103047;28;20178;-79
2020/12/16 01:18:00;;;;;;;250.90;50.70;;;6.80;99.90;;;;;;5093062;28;20622;-79
2020/12/16 01:20:26;;;;;;;171.67;43.40;;;6.80;99.90;;;;;;5096408;28;20297;-79
2020/12/16 01:22:52;;;;;;;194.37;44.57;;;6.70;99.90;;;;;;5111606;28;20187;-79
2020/12/16 01:25:19;;;;;;;115.23;36.20;;;6.60;99.90;;;;;;5108682;28;20189;-79
2020/12/16 01:27:50;;;;;;;155.17;38.73;;;6.50;99.90;;;;;;5107920;28;20239;-79
2020/12/16 01:30:16;;;;;;;155.63;42.70;;;6.50;99.90;;;;;;5107156;28;20181;-79
2020/12/16 01:32:42;;;;;;;131.97;41.23;;;6.50;99.90;;;;;;5097778;28;20183;-79
2020/12/16 01:35:08;;;;;;;117.70;42.50;;;6.50;99.90;;;;;;5097074;28;20192;-79
2020/12/16 01:37:35;;;;;;;124.77;44.77;;;6.60;99.90;;;;;;5106808;28;20272;-79
2020/12/16 01:40:02;;;;;;;171.77;45.40;;;6.50;99.90;;;;;;5104111;28;20228;-79
2020/12/16 01:42:27;;;;;;;372.50;54.43;;;6.50;99.90;;;;;;5101702;28;20266;-79
2020/12/16 01:44:53;;;;;;;390.43;51.77;;;6.60;99.90;;;;;;5104519;28;20295;-79
2020/12/16 01:47:19;;;;;;;186.30;50.23;;;6.60;99.90;;;;;;5099536;28;21933;-79
2020/12/16 01:49:45;;;;;;;339.17;52.37;;;6.60;99.90;;;;;;5090312;28;20204;-79
2020/12/16 01:52:18;;;;;;;213.07;53.17;;;6.60;99.90;;;;;;5094720;28;20762;-79
2020/12/16 01:54:45;;;;;;;187.10;52.97;;;6.70;99.90;;;;;;5105228;28;20648;-79
2020/12/16 01:57:12;;;;;;;160.03;49.27;;;6.70;99.90;;;;;;5104353;28;20192;-79
2020/12/16 01:59:39;;;;;;;351.33;59.40;;;6.90;99.90;;;;;;5103651;28;20598;-79
2020/12/16 02:02:07;;;;;;;275.53;56.63;;;7.00;99.90;;;;;;5111169;28;20205;-79
2020/12/16 02:04:41;;;;;;;192.23;51.97;;;7.10;99.90;;;;;;5103498;28;20593;-79
2020/12/16 02:07:10;;;;;;;224.87;53.33;;;7.30;99.90;;;;;;5108011;28;20200;-79
2020/12/16 02:09:42;;;;;;;183.93;50.40;;;7.40;99.90;;;;;;5104873;28;20192;-79
2020/12/16 02:12:11;;;;;;;126.60;44.83;;;7.50;99.90;;;;;;5104289;28;20192;-79
2020/12/16 02:14:37;;;;;;;154.53;46.30;;;7.30;99.90;;;;;;5103332;28;20182;-79
2020/12/16 02:17:03;;;;;;;110.07;41.07;;;7.00;99.90;;;;;;5104897;28;20243;-79
2020/12/16 02:19:37;;;;;;;171.27;45.20;;;6.80;99.90;;;;;;5100451;28;20261;-79
2020/12/16 02:22:04;;;;;;;323.27;52.63;;;6.80;99.90;;;;;;5104659;28;20194;-79
2020/12/16 02:24:30;;;;;;;217.40;46.57;;;6.60;99.90;;;;;;5105246;28;20186;-79
2020/12/16 02:26:55;;;;;;;121.40;43.23;;;6.60;99.90;;;;;;5097767;28;20185;-79
2020/12/16 02:29:24;;;;;;;103.97;41.03;;;6.80;99.90;;;;;;5094856;28;20194;-79
2020/12/16 02:31:53;;;;;;;109.17;42.17;;;6.90;99.90;;;;;;5096644;28;20190;-79
2020/12/16 02:34:19;;;;;;;134.67;44.13;;;6.70;99.90;;;;;;5097615;28;20204;-79
2020/12/16 02:36:44;;;;;;;103.23;40.73;;;6.80;99.90;;;;;;5102884;28;20557;-79
2020/12/16 02:39:10;;;;;;;161.43;48.07;;;6.60;99.90;;;;;;5103780;28;20216;-79
2020/12/16 02:41:36;;;;;;;116.97;44.30;;;6.60;99.90;;;;;;5099605;28;20216;-79
2020/12/16 02:44:01;;;;;;;131.23;46.57;;;6.60;99.90;;;;;;5102501;28;20770;-79
2020/12/16 02:46:27;;;;;;;142.27;50.67;;;6.80;99.90;;;;;;5107721;28;20603;-79
2020/12/16 02:48:53;;;;;;;117.83;48.13;;;7.10;99.90;;;;;;5107860;28;20181;-79
2020/12/16 02:51:18;;;;;;;127.87;47.53;;;7.10;99.90;;;;;;5095994;28;20190;-79
2020/12/16 02:53:44;;;;;;;104.97;46.23;;;7.30;99.90;;;;;;5096932;28;20213;-79
2020/12/16 02:56:09;;;;;;;121.37;49.17;;;7.40;99.90;;;;;;5099554;28;20304;-79
2020/12/16 02:58:42;;;;;;;131.53;50.83;;;7.40;99.90;;;;;;5087023;28;20597;-79
2020/12/16 03:01:08;;;;;;;122.80;49.73;;;7.30;99.90;;;;;;5100706;28;20288;-79
2020/12/16 03:03:33;;;;;;;112.33;47.40;;;7.40;99.90;;;;;;5095082;28;20296;-78
2020/12/16 03:05:59;;;;;;;104.33;46.03;;;7.60;99.90;;;;;;5103229;28;20188;-78
2020/12/16 03:08:24;;;;;;;148.13;51.47;;;7.50;99.90;;;;;;5105346;28;20184;-79
2020/12/16 03:10:50;;;;;;;127.57;51.03;;;7.40;99.90;;;;;;5104981;28;20687;-79
2020/12/16 03:13:16;;;;;;;110.40;48.30;;;7.30;99.90;;;;;;5105039;28;20200;-79
2020/12/16 03:15:41;;;;;;;97.10;44.80;;;7.10;99.90;;;;;;5108327;28;20220;-79
2020/12/16 03:18:07;;;;;;;134.53;49.93;;;6.80;99.90;;;;;;5107440;28;20188;-79
2020/12/16 03:20:32;;;;;;;115.03;45.70;;;6.80;99.90;;;;;;5093241;28;20624;-79
2020/12/16 03:22:58;;;;;;;130.47;46.37;;;6.70;99.90;;;;;;5101490;28;20181;-79
2020/12/16 03:25:24;;;;;;;132.30;49.17;;;6.70;99.90;;;;;;5097716;28;20193;-79
2020/12/16 03:27:49;;;;;;;106.30;43.67;;;6.60;99.90;;;;;;5096689;28;20294;-79
2020/12/16 03:30:15;;;;;;;99.03;43.57;;;6.50;99.90;;;;;;5100238;28;20182;-79
2020/12/16 03:32:41;;;;;;;83.50;41.57;;;6.50;99.90;;;;;;5098983;28;20272;-79
2020/12/16 03:35:06;;;;;;;104.60;44.87;;;6.50;99.90;;;;;;5102601;28;20708;-79
2020/12/16 03:37:32;;;;;;;100.70;44.83;;;6.50;99.90;;;;;;5100208;28;20190;-79
2020/12/16 03:39:57;;;;;;;89.73;42.83;;;6.40;99.90;;;;;;5103558;28;20235;-79
2020/12/16 03:42:23;;;;;;;113.07;46.17;;;6.30;99.90;;;;;;5103839;28;20208;-79
2020/12/16 03:44:49;;;;;;;103.37;42.13;;;6.30;99.90;;;;;;5098537;28;20193;-79
2020/12/16 03:47:15;;;;;;;126.60;45.67;;;6.40;99.90;;;;;;5099242;28;20556;-79
2020/12/16 03:49:41;;;;;;;118.67;45.17;;;6.30;99.90;;;;;;5101855;28;20194;-79
2020/12/16 03:52:06;;;;;;;109.13;43.77;;;6.20;99.90;;;;;;5108840;28;20198;-79
2020/12/16 03:54:32;;;;;;;118.73;45.83;;;6.10;99.90;;;;;;5100428;28;20223;-79
2020/12/16 03:56:58;;;;;;;123.70;44.57;;;6.20;99.90;;;;;;5093338;28;20192;-79
2020/12/16 03:59:23;;;;;;;113.70;44.17;;;6.10;99.90;;;;;;5102230;28;20193;-79
2020/12/16 04:01:51;;;;;;;106.70;41.97;;;6.10;99.90;;;;;;5091599;28;20212;-79
2020/12/16 04:04:17;;;;;;;107.27;42.77;;;6.10;99.90;;;;;;5104287;28;20263;-79
2020/12/16 04:06:43;;;;;;;106.57;41.77;;;6.10;99.90;;;;;;5094563;28;20261;-79
2020/12/16 04:09:09;;;;;;;179.90;50.00;;;6.00;99.90;;;;;;5098570;28;20184;-79
2020/12/16 04:11:34;;;;;;;250.77;50.27;;;6.00;99.90;;;;;;5097080;28;20664;-79
2020/12/16 04:14:00;;;;;;;426.63;60.50;;;6.10;99.90;;;;;;5104725;28;20199;-79
2020/12/16 04:16:25;;;;;;;276.77;47.53;;;6.00;99.90;;;;;;5110182;28;20195;-79
2020/12/16 04:18:52;;;;;;;140.30;38.33;;;5.90;99.90;;;;;;5108722;28;20196;-79
2020/12/16 04:21:19;;;;;;;321.57;47.67;;;5.90;99.90;;;;;;5108161;28;20737;-79
2020/12/16 04:23:45;;;;;;;308.03;49.57;;;5.90;99.90;;;;;;5110283;28;20187;-79
2020/12/16 04:26:11;;;;;;;210.37;48.07;;;6.10;99.90;;;;;;5100055;28;20197;-79
2020/12/16 04:28:37;;;;;;;113.33;41.93;;;6.00;99.90;;;;;;5107927;28;20245;-79
2020/12/16 04:31:04;;;;;;;129.67;44.23;;;6.10;99.90;;;;;;5104275;28;20196;-79
2020/12/16 04:33:31;;;;;;;123.70;45.57;;;6.00;99.90;;;;;;5107083;28;20254;-79
2020/12/16 04:35:58;;;;;;;331.27;61.47;;;6.10;99.90;;;;;;5098590;28;20614;-79
2020/12/16 04:38:23;;;;;;;158.67;48.20;;;6.10;99.90;;;;;;5112001;28;20621;-79
2020/12/16 04:40:49;;;;;;;131.20;46.60;;;6.00;99.90;;;;;;5105404;28;20208;-79
2020/12/16 04:43:20;;;;;;;102.80;41.37;;;6.00;99.90;;;;;;5103291;28;20217;-79
2020/12/16 04:45:47;;;;;;;98.70;38.47;;;6.00;99.90;;;;;;5104306;28;20195;-79
2020/12/16 04:48:15;;;;;;;128.93;44.10;;;5.80;99.90;;;;;;5110173;28;20576;-79
2020/12/16 04:50:42;;;;;;;112.33;41.37;;;5.80;99.90;;;;;;5106866;28;20315;-79
2020/12/16 04:53:13;;;;;;;134.80;43.87;;;5.80;99.90;;;;;;5105684;28;20195;-79
2020/12/16 04:55:40;;;;;;;310.57;49.40;;;5.90;99.90;;;;;;5098096;28;20185;-79
2020/12/16 04:58:06;;;;;;;256.33;49.33;;;5.80;99.90;;;;;;5106666;28;20241;-79
2020/12/16 05:00:33;;;;;;;263.33;46.17;;;5.70;99.90;;;;;;5098542;28;20220;-79
2020/12/16 05:03:01;;;;;;;439.53;65.20;;;5.70;99.90;;;;;;5101564;28;20181;-79
2020/12/16 05:05:27;;;;;;;267.90;44.77;;;5.70;99.90;;;;;;5107438;28;20174;-79
2020/12/16 05:07:53;;;;;;;121.33;40.97;;;5.40;99.90;;;;;;5089866;28;20672;-79
2020/12/16 05:10:34;;;;;;;92.53;39.47;;;5.30;99.90;;;;;;5099760;28;20171;-79
2020/12/16 05:13:14;;;;;;;77.70;37.10;;;5.60;99.90;;;;;;5103668;28;20192;-79
2020/12/16 05:15:42;;;;;;;80.17;39.40;;;5.80;99.90;;;;;;5106663;28;20264;-79
2020/12/16 05:18:27;;;;;;;89.20;40.37;;;5.90;99.90;;;;;;5108805;28;20282;-79
2020/12/16 05:20:56;;;;;;;63.30;35.33;;;6.10;99.90;;;;;;5102231;28;20205;-79
2020/12/16 05:23:30;;;;;;;73.70;36.90;;;6.30;99.90;;;;;;5106098;28;20226;-79
2020/12/16 05:26:07;;;;;;;64.70;35.73;;;6.40;99.90;;;;;;5095496;28;20213;-78
2020/12/16 05:28:53;;;;;;;73.57;36.90;;;6.40;99.90;;;;;;5107081;28;20218;-79
2020/12/16 05:31:19;;;;;;;72.27;36.27;;;6.70;99.90;;;;;;5106437;28;20192;-79
2020/12/16 05:33:47;;;;;;;63.10;32.83;;;6.60;99.90;;;;;;5103261;28;20606;-79
2020/12/16 05:36:29;;;;;;;67.07;34.00;;;6.70;99.90;;;;;;5107913;28;20177;-79
2020/12/16 05:38:55;;;;;;;66.40;33.43;;;6.90;99.90;;;;;;5106906;28;20201;-79
2020/12/16 05:41:32;;;;;;;68.33;33.43;;;7.00;99.90;;;;;;5112145;28;20207;-79
2020/12/16 05:44:18;;;;;;;51.10;29.80;;;7.20;99.90;;;;;;5103441;28;20592;-79
2020/12/16 05:46:44;;;;;;;58.20;30.27;;;7.20;99.90;;;;;;5101282;28;20179;-79
2020/12/16 05:49:27;;;;;;;54.93;30.93;;;7.30;99.90;;;;;;5101441;28;20654;-79
2020/12/16 05:52:01;;;;;;;61.17;31.97;;;7.20;99.90;;;;;;5105733;28;20178;-79
2020/12/16 05:54:27;;;;;;;76.63;33.77;;;7.30;99.90;;;;;;5103293;28;20554;-79
2020/12/16 05:57:14;;;;;;;66.07;33.80;;;7.30;99.90;;;;;;5098242;28;20243;-79
2020/12/16 05:59:41;;;;;;;77.97;36.63;;;7.40;99.90;;;;;;5108111;28;20643;-79
2020/12/16 06:02:07;;;;;;;72.57;35.07;;;7.30;99.90;;;;;;5106713;28;20208;-79
2020/12/16 06:04:34;;;;;;;76.30;35.93;;;7.30;99.90;;;;;;5102525;28;20184;-79
2020/12/16 06:07:01;;;;;;;71.73;34.50;;;7.30;99.90;;;;;;5099972;28;20215;-79
2020/12/16 06:09:28;;;;;;;71.40;35.83;;;7.20;99.90;;;;;;5105345;28;20188;-79
2020/12/16 06:11:55;;;;;;;67.40;34.80;;;7.00;99.90;;;;;;5106984;28;20245;-80
2020/12/16 06:14:21;;;;;;;68.37;35.30;;;6.90;99.90;;;;;;5099893;28;20183;-79
2020/12/16 06:16:48;;;;;;;81.90;36.93;;;7.00;99.90;;;;;;5096963;28;20190;-79
2020/12/16 06:19:31;;;;;;;79.47;36.43;;;7.10;99.90;;;;;;5098393;28;20192;-79
2020/12/16 06:22:07;;;;;;;65.43;36.33;;;7.20;99.90;;;;;;5099927;28;20235;-79
2020/12/16 06:24:42;;;;;;;66.37;33.70;;;7.10;99.90;;;;;;5097079;28;20186;-79
2020/12/16 06:27:10;;;;;;;70.20;34.73;;;7.00;99.90;;;;;;5106609;28;20178;-79
2020/12/16 06:29:43;;;;;;;59.10;32.63;;;6.90;99.90;;;;;;5108266;28;20209;-79
2020/12/16 06:32:19;;;;;;;55.63;32.27;;;6.70;99.90;;;;;;5102041;28;20554;-79
2020/12/16 06:34:46;;;;;;;66.17;34.30;;;6.60;99.90;;;;;;5108001;28;20182;-79
2020/12/16 06:37:15;;;;;;;63.20;31.07;;;6.80;99.90;;;;;;5100844;28;20648;-79
2020/12/16 06:39:41;;;;;;;64.03;30.70;;;6.90;99.90;;;;;;5097044;28;20715;-79
2020/12/16 06:42:07;;;;;;;56.07;30.50;;;6.90;99.90;;;;;;5101468;28;20202;-79
2020/12/16 06:44:33;;;;;;;52.00;30.33;;;6.90;99.90;;;;;;5093632;28;20186;-79
2020/12/16 06:46:59;;;;;;;63.87;36.17;;;7.10;99.90;;;;;;5099773;28;20601;-79
2020/12/16 06:49:27;;;;;;;65.60;36.73;;;7.30;99.90;;;;;;5104358;28;20665;-77
2020/12/16 06:51:54;;;;;;;54.43;33.03;;;7.30;99.90;;;;;;5107229;28;20185;-76
2020/12/16 06:54:22;;;;;;;59.80;33.53;;;7.10;99.90;;;;;;5095394;28;20176;-77
2020/12/16 06:57:08;;;;;;;50.87;28.93;;;7.10;99.90;;;;;;5094456;28;20635;-77
2020/12/16 06:59:48;;;;;;;52.53;30.23;;;7.10;99.90;;;;;;5095272;28;20199;-77
2020/12/16 07:02:37;;;;;;;56.60;32.00;;;7.30;99.90;;;;;;5094667;28;20194;-75
2020/12/16 07:05:05;;;;;;;56.60;32.97;;;7.20;99.90;;;;;;5103386;28;20181;-79
2020/12/16 07:07:55;;;;;;;65.53;34.23;;;7.10;99.90;;;;;;5103401;28;20245;-78
2020/12/16 07:10:39;;;;;;;56.73;32.53;;;7.10;99.90;;;;;;5102234;28;20212;-79
2020/12/16 07:13:10;;;;;;;55.63;32.17;;;6.90;99.90;;;;;;5095131;28;20196;-78
2020/12/16 07:15:47;;;;;;;61.47;32.20;;;6.70;99.90;;;;;;5108004;28;20661;-79
2020/12/16 07:18:31;;;;;;;46.87;29.83;;;6.70;99.90;;;;;;5092235;28;20229;-79
2020/12/16 07:21:09;;;;;;;54.63;31.70;;;6.80;99.90;;;;;;5101335;28;20236;-79
2020/12/16 07:23:56;;;;;;;60.70;31.63;;;6.90;99.90;;;;;;5103633;28;20213;-79
2020/12/16 07:26:31;;;;;;;49.80;30.47;;;7.00;99.90;;;;;;5101512;28;20226;-78
2020/12/16 07:28:58;;;;;;;51.20;29.70;;;6.90;99.90;;;;;;5099223;28;20199;-79
2020/12/16 07:31:25;;;;;;;51.67;31.37;;;7.10;99.90;;;;;;5092965;28;20187;-79
2020/12/16 07:33:51;;;;;;;48.33;29.77;;;7.10;99.90;;;;;;5092728;28;20630;-79
2020/12/16 07:36:19;;;;;;;47.23;29.83;;;7.00;99.90;;;;;;5101609;28;20642;-79
2020/12/16 07:38:49;;;;;;;50.20;31.30;;;7.10;99.90;;;;;;5092779;28;20210;-79
2020/12/16 07:41:29;;;;;;;51.07;30.53;;;7.10;99.90;;;;;;5099860;28;20295;-78
2020/12/16 07:44:01;;;;;;;48.80;30.37;;;7.10;99.90;;;;;;5102605;28;20187;-78
2020/12/16 07:46:27;;;;;;;50.13;30.93;;;7.00;99.90;;;;;;5105100;28;20176;-78
2020/12/16 07:48:53;;;;;;;48.17;30.70;;;7.00;99.90;;;;;;5105053;28;20192;-78
2020/12/16 07:51:19;;;;;;;52.07;30.17;;;6.80;99.90;;;;;;5098735;28;20184;-79
2020/12/16 07:53:47;;;;;;;50.33;32.13;;;6.80;99.90;;;;;;5103512;28;20187;-78
2020/12/16 07:56:15;;;;;;;48.17;30.00;;;6.90;99.90;;;;;;5104674;28;20579;-79
2020/12/16 07:58:41;;;;;;;47.27;30.97;;;6.90;99.90;;;;;;5102011;28;20186;-79
2020/12/16 08:01:18;;;;;;;48.77;30.77;;;7.00;99.90;;;;;;5093493;28;20224;-79
2020/12/16 08:03:44;;;;;;;51.37;31.50;;;7.00;99.90;;;;;;5107551;28;20655;-79
2020/12/16 08:06:11;;;;;;;47.20;30.03;;;7.00;99.90;;;;;;5110440;28;20231;-79
2020/12/16 08:08:53;;;;;;;43.97;29.70;;;7.10;99.90;;;;;;5104439;28;20213;-79
2020/12/16 08:11:21;;;;;;;46.20;29.27;;;7.30;99.90;;;;;;5101269;28;20514;-79
2020/12/16 08:13:47;;;;;;;45.73;28.63;;;7.10;99.90;;;;;;5101003;28;20197;-79
2020/12/16 08:16:14;;;;;;;47.63;29.70;;;7.30;99.90;;;;;;5099275;28;20189;-79
2020/12/16 08:18:47;;;;;;;41.60;28.23;;;7.80;99.90;;;;;;5109268;28;20280;-79
2020/12/16 08:21:21;;;;;;;40.20;27.80;;;8.30;99.90;;;;;;5100201;28;20254;-79
2020/12/16 08:23:50;;;;;;;39.80;25.83;;;8.50;99.90;;;;;;5099505;28;20268;-79
2020/12/16 08:26:17;;;;;;;42.07;26.90;;;8.40;99.90;;;;;;5110902;28;20178;-79
2020/12/16 08:28:43;;;;;;;35.53;24.83;;;8.30;99.90;;;;;;5105083;28;20218;-79
2020/12/16 08:31:10;;;;;;;31.97;22.13;;;8.70;99.90;;;;;;5101112;28;20281;-79
2020/12/16 08:33:38;;;;;;;36.93;23.20;;;9.20;99.90;;;;;;5099957;28;20186;-79
2020/12/16 08:36:08;;;;;;;34.03;23.97;;;10.00;99.90;;;;;;5103704;28;20558;-79
2020/12/16 08:38:40;;;;;;;31.70;20.53;;;10.50;99.90;;;;;;5108126;28;20216;-79
2020/12/16 08:41:09;;;;;;;25.73;18.57;;;10.60;99.90;;;;;;5100373;28;20217;-79
2020/12/16 08:43:44;;;;;;;31.17;20.07;;;10.70;99.90;;;;;;5110353;28;20537;-79
2020/12/16 08:46:12;;;;;;;23.67;17.70;;;10.90;99.90;;;;;;5086681;28;20645;-79
2020/12/16 08:48:53;;;;;;;24.27;16.43;;;11.20;99.90;;;;;;5108078;28;20282;-79
2020/12/16 08:51:29;;;;;;;23.83;15.67;;;11.50;99.90;;;;;;5112982;28;20718;-80
2020/12/16 08:53:58;;;;;;;19.43;15.60;;;11.60;99.90;;;;;;5106612;28;20319;-79
2020/12/16 08:56:33;;;;;;;18.67;14.27;;;11.50;99.90;;;;;;5109613;28;20634;-79
2020/12/16 08:59:06;;;;;;;18.27;13.43;;;11.80;99.90;;;;;;5107021;28;20178;-79
2020/12/16 09:01:32;;;;;;;19.13;13.50;;;12.30;99.90;;;;;;5105665;28;20296;-79
2020/12/16 09:03:58;;;;;;;16.53;12.43;;;12.80;99.90;;;;;;5104421;28;20630;-79
2020/12/16 09:06:23;;;;;;;16.97;11.80;;;12.90;99.90;;;;;;5113314;27;20185;-80
2020/12/16 09:08:49;;;;;;;13.20;10.87;;;12.80;99.90;;;;;;5096455;28;20203;-79
2020/12/16 09:11:19;;;;;;;12.00;9.77;;;12.70;99.90;;;;;;5100156;28;20257;-79
2020/12/16 09:13:46;;;;;;;11.23;9.40;;;12.90;99.90;;;;;;5104918;28;20178;-79
2020/12/16 09:16:19;;;;;;;13.10;9.40;;;12.80;99.90;;;;;;5102149;28;20261;-79
2020/12/16 09:18:46;;;;;;;13.07;8.70;;;12.70;99.90;;;;;;5087943;28;20181;-77
2020/12/16 09:21:14;;;;;;;13.90;8.37;;;12.90;99.90;;;;;;5104517;28;20765;-79
2020/12/16 09:23:39;;;;;;;12.23;9.60;;;12.60;99.90;;;;;;5102520;28;20182;-79
2020/12/16 09:26:05;;;;;;;10.87;8.30;;;13.00;99.90;;;;;;5101814;28;20190;-77
2020/12/16 09:28:39;;;;;;;12.10;9.57;;;13.10;99.90;;;;;;5096337;28;20222;-77
2020/12/16 09:31:16;;;;;;;10.70;8.37;;;13.30;99.90;;;;;;5088366;28;21508;-79
2020/12/16 09:34:04;;;;;;;8.97;7.70;;;13.60;99.90;;;;;;5100784;28;20216;-77
2020/12/16 09:36:30;;;;;;;8.40;7.50;;;14.00;99.90;;;;;;5106362;28;20718;-77
2020/12/16 09:39:03;;;;;;;9.03;7.43;;;14.60;99.90;;;;;;5103259;28;20277;-77
2020/12/16 09:41:48;;;;;;;9.17;7.00;;;13.70;99.90;;;;;;5104178;28;20195;-77
2020/12/16 09:44:23;;;;;;;9.53;7.73;;;13.40;99.90;;;;;;5105166;27;20247;-79
2020/12/16 09:46:48;;;;;;;7.93;6.90;;;13.50;99.90;;;;;;5078798;28;20201;-79
2020/12/16 09:49:18;;;;;;;10.33;7.73;;;13.00;99.90;;;;;;5097611;28;20631;-79
2020/12/16 09:51:44;;;;;;;9.47;6.93;;;13.10;99.90;;;;;;5098462;28;20611;-79
2020/12/16 09:54:09;;;;;;;11.57;7.23;;;13.20;99.90;;;;;;5100385;28;20252;-79
2020/12/16 09:56:35;;;;;;;10.80;8.57;;;13.40;99.90;;;;;;5110322;28;20234;-79
2020/12/16 09:59:02;;;;;;;11.43;8.73;;;13.80;99.90;;;;;;5102651;28;20194;-79
2020/12/16 10:01:28;;;;;;;14.13;8.03;;;14.10;99.90;;;;;;5105531;28;20190;-77
2020/12/16 10:03:53;;;;;;;13.13;8.13;;;14.10;99.90;;;;;;5107791;28;20178;-79
2020/12/16 10:06:19;;;;;;;9.20;6.67;;;14.50;99.90;;;;;;5106446;28;20650;-79
2020/12/16 10:08:45;;;;;;;9.93;7.37;;;14.70;99.90;;;;;;5110954;28;20174;-79
2020/12/16 10:11:15;;;;;;;8.63;7.10;;;14.40;99.90;;;;;;5108178;28;20194;-79
2020/12/16 10:13:43;;;;;;;7.37;6.07;;;14.30;99.90;;;;;;5111380;28;20602;-79
2020/12/16 10:16:11;;;;;;;7.30;6.60;;;13.60;99.90;;;;;;5109741;28;20584;-79
2020/12/16 10:18:37;;;;;;;9.27;7.43;;;12.90;99.90;;;;;;5108845;28;20645;-79
2020/12/16 10:21:04;;;;;;;7.90;6.63;;;12.70;99.90;;;;;;5109121;28;20201;-79
2020/12/16 10:23:30;;;;;;;9.00;7.33;;;12.10;99.90;;;;;;5112668;28;20648;-79
2020/12/16 10:25:56;;;;;;;8.13;7.20;;;11.70;99.90;;;;;;5113673;28;20169;-79
2020/12/16 10:28:21;;;;;;;7.40;6.70;;;11.50;99.90;;;;;;5113560;28;20563;-78
2020/12/16 10:30:50;;;;;;;11.00;7.30;;;11.00;99.90;;;;;;5113764;28;20528;-79
2020/12/16 10:33:17;;;;;;;7.43;6.47;;;11.10;99.90;;;;;;5095282;28;20176;-78
2020/12/16 10:35:43;;;;;;;10.13;8.90;;;10.90;99.90;;;;;;5113515;28;20170;-79
2020/12/16 10:38:10;;;;;;;7.90;7.13;;;10.90;99.90;;;;;;5116263;28;20177;-79
2020/12/16 10:40:37;;;;;;;12.03;9.10;;;10.50;99.90;;;;;;5114671;28;20261;-79
2020/12/16 10:43:04;;;;;;;10.57;7.23;;;10.30;99.90;;;;;;5112155;28;20235;-79
2020/12/16 10:45:30;;;;;;;8.63;6.50;;;10.40;99.90;;;;;;5112061;28;20174;-79
2020/12/16 10:47:58;;;;;;;8.03;6.60;;;10.40;99.90;;;;;;5100144;28;20256;-79
2020/12/16 10:50:25;;;;;;;8.47;7.57;;;10.30;99.90;;;;;;5103930;28;20226;-79
2020/12/16 10:52:51;;;;;;;9.37;7.90;;;10.50;99.90;;;;;;5093078;28;20670;-79
2020/12/16 10:55:17;;;;;;;7.87;7.07;;;10.70;99.90;;;;;;5106576;28;20200;-79
2020/12/16 10:57:43;;;;;;;8.67;6.50;;;10.60;99.90;;;;;;5091185;28;20264;-79
2020/12/16 11:00:08;;;;;;;7.50;6.47;;;10.50;99.90;;;;;;5111172;28;20200;-79
2020/12/16 11:02:34;;;;;;;8.67;7.47;;;10.30;99.90;;;;;;5112141;28;20292;-78
2020/12/16 11:04:59;;;;;;;7.73;6.93;;;10.30;99.90;;;;;;5111632;28;20178;-78
2020/12/16 11:07:25;;;;;;;8.60;6.70;;;10.40;99.90;;;;;;5113119;28;20185;-78
2020/12/16 11:09:51;;;;;;;8.50;7.40;;;10.40;99.90;;;;;;5112464;28;20547;-78
2020/12/16 11:12:17;;;;;;;12.60;9.37;;;10.50;99.90;;;;;;5113592;28;20283;-78
2020/12/16 11:14:42;;;;;;;8.90;6.90;;;10.50;99.90;;;;;;5108186;28;20181;-78
2020/12/16 11:17:09;;;;;;;9.50;7.03;;;10.50;99.90;;;;;;5112829;28;20181;-79
2020/12/16 11:19:35;;;;;;;8.73;6.57;;;10.50;99.90;;;;;;5112195;28;20174;-78
2020/12/16 11:22:01;;;;;;;8.07;7.23;;;10.60;99.90;;;;;;5113942;28;20216;-76
2020/12/16 11:24:27;;;;;;;9.90;6.77;;;10.70;99.90;;;;;;5115021;28;20188;-78
2020/12/16 11:26:53;;;;;;;9.07;7.07;;;10.80;99.90;;;;;;5117931;28;20201;-78
2020/12/16 11:29:22;;;;;;;7.87;6.57;;;10.80;99.90;;;;;;5116859;28;20231;-78
2020/12/16 11:31:49;;;;;;;10.53;7.37;;;10.90;99.90;;;;;;5118086;28;20205;-78
2020/12/16 11:34:17;;;;;;;8.53;7.20;;;10.80;99.90;;;;;;5116516;28;20235;-78
2020/12/16 11:36:44;;;;;;;9.33;6.83;;;11.00;99.90;;;;;;5096643;28;20194;-78
2020/12/16 11:39:11;;;;;;;8.37;6.90;;;11.00;99.90;;;;;;5114258;28;20595;-78
2020/12/16 11:41:45;;;;;;;8.63;6.70;;;10.90;99.90;;;;;;5118064;28;20200;-79
2020/12/16 11:44:15;;;;;;;15.03;9.83;;;10.90;99.90;;;;;;5105059;28;20221;-78
2020/12/16 11:46:42;;;;;;;9.63;7.60;;;10.80;99.90;;;;;;5115567;28;20218;-79
2020/12/16 11:49:08;;;;;;;14.17;11.63;;;10.80;99.90;;;;;;5114296;28;20184;-78
2020/12/16 11:51:33;;;;;;;12.30;9.23;;;10.90;99.90;;;;;;5109619;28;20256;-79
2020/12/16 11:53:59;;;;;;;12.00;8.97;;;11.00;99.90;;;;;;5117168;28;20209;-79
2020/12/16 11:56:25;;;;;;;10.20;7.53;;;11.00;99.90;;;;;;5117421;28;20602;-79
2020/12/16 11:58:54;;;;;;;8.83;7.70;;;11.20;99.90;;;;;;5116567;28;20325;-79
2020/12/16 12:01:20;;;;;;;10.90;8.87;;;11.20;99.90;;;;;;5111901;28;20284;-79
2020/12/16 12:03:46;;;;;;;9.93;8.27;;;11.40;99.90;;;;;;5098245;28;20646;-79
2020/12/16 12:06:15;;;;;;;10.00;7.37;;;11.40;99.90;;;;;;5115781;28;20235;-79
2020/12/16 12:08:45;;;;;;;10.37;7.00;;;11.30;99.90;;;;;;5106050;28;20189;-81
2020/12/16 12:11:12;;;;;;;10.37;6.87;;;11.30;99.90;;;;;;5096822;28;20174;-81
2020/12/16 12:13:42;;;;;;;8.17;6.63;;;11.20;99.90;;;;;;5104819;28;20218;-80
2020/12/16 12:16:11;;;;;;;8.03;7.17;;;11.30;99.90;;;;;;5117276;28;20174;-81
2020/12/16 12:18:40;;;;;;;8.90;7.40;;;11.50;99.90;;;;;;5116804;28;20633;-81
2020/12/16 12:21:07;;;;;;;7.93;6.30;;;11.50;99.90;;;;;;5101260;28;20248;-81
2020/12/16 12:23:33;;;;;;;8.97;8.07;;;11.40;99.90;;;;;;5090375;28;20181;-81
2020/12/16 12:25:59;;;;;;;8.67;6.80;;;11.40;99.90;;;;;;5123644;27;20645;-80
2020/12/16 12:28:24;;;;;;;9.63;6.63;;;11.50;99.90;;;;;;5114052;28;20272;-81
2020/12/16 12:30:50;;;;;;;8.00;6.37;;;11.50;99.90;;;;;;5106754;28;20315;-81
2020/12/16 12:33:17;;;;;;;9.83;6.10;;;11.40;99.90;;;;;;5110973;28;20185;-81
2020/12/16 12:35:42;;;;;;;8.93;6.33;;;11.30;99.90;;;;;;5101565;28;20259;-81
2020/12/16 12:38:08;;;;;;;11.37;7.17;;;11.40;99.90;;;;;;5110935;28;20628;-81
2020/12/16 12:40:34;;;;;;;14.10;8.67;;;11.60;99.90;;;;;;5105219;28;20183;-81